Time;durP1;ratioP1;P1;durP2;ratioP2;P2;SDS_P1;SDS_P2;PMS_P1;PMS_P2;Temp;Humidity;BMP_temperature;BMP_pressure;BME280_temperature;BME280_humidity;BME280_pressure;Samples;Min_cycle;Max_cycle;Signal;HPM_P1;HPM_P2
2023/03/15 00:00:19;;;;;;;;;;;3.90;99.90;;;;;;5074071;28;19913;-81
2023/03/15 00:02:45;;;;;;;;;;;3.90;99.90;;;;;;5057044;28;19940;-80
2023/03/15 00:05:11;;;;;;;;;;;4.00;99.90;;;;;;5074061;28;19934;-80
2023/03/15 00:07:37;;;;;;;;;;;4.00;99.90;;;;;;5057275;28;19908;-81
2023/03/15 00:10:03;;;;;;;;;;;4.10;99.90;;;;;;5075051;28;19908;-80
2023/03/15 00:12:29;;;;;;;;;;;4.10;99.90;;;;;;5056834;28;20448;-80
2023/03/15 00:14:54;;;;;;;;;;;4.20;99.90;;;;;;5073472;28;20003;-80
2023/03/15 00:17:21;;;;;;;;;;;4.30;99.90;;;;;;5074727;28;19915;-79
2023/03/15 00:19:47;;;;;;;;;;;4.40;99.90;;;;;;5073474;28;19915;-80
2023/03/15 00:22:12;;;;;;;;;;;4.30;99.90;;;;;;5056534;28;19908;-81
2023/03/15 00:24:38;;;;;;;;;;;4.30;99.90;;;;;;5072353;28;19955;-81
2023/03/15 00:27:04;;;;;;;;;;;4.40;99.90;;;;;;5056622;28;19909;-81
2023/03/15 00:29:30;;;;;;;;;;;4.50;99.90;;;;;;5056633;28;19916;-79
2023/03/15 00:31:56;;;;;;;;;;;4.50;99.90;;;;;;5056376;28;20275;-81
2023/03/15 00:34:24;;;;;;;;;;;4.40;99.90;;;;;;5074657;28;20391;-80
2023/03/15 00:36:52;;;;;;;;;;;4.40;99.90;;;;;;5073054;28;19923;-80
2023/03/15 00:39:18;;;;;;;;;;;4.40;99.90;;;;;;5074312;28;19908;-81
2023/03/15 00:41:44;;;;;;;;;;;4.40;99.90;;;;;;5056392;28;20004;-80
2023/03/15 00:44:10;;;;;;;;;;;4.40;99.90;;;;;;5074285;28;19956;-81
2023/03/15 00:46:35;;;;;;;;;;;4.40;99.90;;;;;;5072726;28;19908;-80
2023/03/15 00:49:01;;;;;;;;;;;4.40;99.90;;;;;;5074381;28;20356;-80
2023/03/15 00:51:26;;;;;;;;;;;4.50;99.90;;;;;;5073007;28;19919;-80
2023/03/15 00:53:52;;;;;;;;;;;4.50;99.90;;;;;;5074128;28;19908;-81
2023/03/15 00:56:22;;;;;;;;;;;4.50;99.90;;;;;;5056126;28;20013;-81
2023/03/15 00:58:48;;;;;;;;;;;4.50;99.90;;;;;;5074207;28;19909;-81
2023/03/15 01:01:18;;;;;;;;;;;4.40;99.90;;;;;;5055541;28;19908;-80
2023/03/15 01:03:44;;;;;;;;;;;4.40;99.90;;;;;;5056072;28;20307;-81
2023/03/15 01:06:11;;;;;;;;;;;4.30;99.90;;;;;;5056326;28;19912;-80
2023/03/15 01:08:37;;;;;;;;;;;4.30;99.90;;;;;;5073805;28;20338;-80
2023/03/15 01:11:04;;;;;;;;;;;4.20;99.90;;;;;;5072305;28;19909;-80
2023/03/15 01:13:29;;;;;;;;;;;4.30;99.90;;;;;;5074153;28;19972;-81
2023/03/15 01:15:54;;;;;;;;;;;4.30;99.90;;;;;;5073457;28;19963;-81
2023/03/15 01:18:20;;;;;;;;;;;4.30;99.90;;;;;;5072305;28;19909;-80
2023/03/15 01:20:45;;;;;;;;;;;4.30;99.90;;;;;;5073788;28;19914;-80
2023/03/15 01:23:11;;;;;;;;;;;4.40;99.90;;;;;;5072050;28;19908;-80
2023/03/15 01:25:36;;;;;;;;;;;4.40;99.90;;;;;;5073843;28;19909;-80
2023/03/15 01:28:02;;;;;;;;;;;4.40;99.90;;;;;;5074202;28;19912;-80
2023/03/15 01:30:27;;;;;;;;;;;4.30;99.90;;;;;;5072319;28;19922;-80
2023/03/15 01:32:53;;;;;;;;;;;4.30;99.90;;;;;;5072119;28;20329;-80
2023/03/15 01:35:18;;;;;;;;;;;4.30;99.90;;;;;;5072144;28;19919;-80
2023/03/15 01:37:43;;;;;;;;;;;4.20;99.90;;;;;;5072700;28;19954;-80
2023/03/15 01:40:12;;;;;;;;;;;4.10;99.90;;;;;;5072318;28;19916;-80
2023/03/15 01:42:51;;;;;;;;;;;4.00;99.90;;;;;;5072938;28;19955;-80
2023/03/15 01:45:35;;;;;;;;;;;3.80;99.90;;;;;;5055060;28;19991;-81
2023/03/15 01:48:01;;;;;;;;;;;3.60;99.90;;;;;;5054676;28;19909;-81
2023/03/15 01:50:26;;;;;;;;;;;3.50;99.90;;;;;;5072046;28;20273;-80
2023/03/15 01:52:52;;;;;;;;;;;3.40;99.90;;;;;;5055951;28;20279;-80
2023/03/15 01:55:18;;;;;;;;;;;3.30;99.90;;;;;;5075131;28;19912;-81
2023/03/15 01:57:47;;;;;;;;;;;3.20;99.90;;;;;;5056880;28;20569;-82
2023/03/15 02:00:14;;;;;;;;;;;3.30;99.90;;;;;;5075909;28;20264;-83
2023/03/15 02:02:45;;;;;;;;;;;3.20;99.90;;;;;;5062147;28;20380;-83
2023/03/15 02:05:13;;;;;;;;;;;3.20;99.90;;;;;;5062402;28;19916;-83
2023/03/15 02:07:41;;;;;;;;;;;3.20;99.90;;;;;;5062029;28;19908;-83
2023/03/15 02:10:11;;;;;;;;;;;3.20;99.90;;;;;;5079855;28;19919;-83
2023/03/15 02:12:41;;;;;;;;;;;3.20;99.90;;;;;;5062887;28;20003;-84
2023/03/15 02:15:07;;;;;;;;;;;3.10;99.90;;;;;;5061316;28;19927;-83
2023/03/15 02:17:37;;;;;;;;;;;3.00;99.90;;;;;;5060345;28;19959;-84
2023/03/15 02:20:14;;;;;;;;;;;2.90;99.90;;;;;;5076988;28;19939;-84
2023/03/15 02:22:52;;;;;;;;;;;2.70;99.90;;;;;;5057308;28;19915;-83
2023/03/15 02:30:26;;;;;;;;;;;2.20;99.90;;;;;;5055615;28;19925;-85
2023/03/15 02:32:55;;;;;;;;;;;2.00;99.90;;;;;;5039194;28;19955;-85
2023/03/15 02:35:25;;;;;;;;;;;1.90;99.90;;;;;;5041038;28;19967;-85
2023/03/15 02:38:14;;;;;;;;;;;1.80;99.90;;;;;;5041048;28;20299;-85
2023/03/15 02:59:59;;;;;;;;;;;2.20;99.90;;;;;;4976738;28;20273;-85
2023/03/15 03:02:43;;;;;;;;;;;;;;;;;;;;;
2023/03/15 03:05:51;;;;;;;;;;;;;;;;;;;;;
2023/03/15 03:08:20;;;;;;;;;;;2.40;99.90;;;;;;5028727;28;19992;-84
2023/03/15 03:10:49;;;;;;;;;;;2.50;99.90;;;;;;5057546;28;20438;-84
2023/03/15 03:13:17;;;;;;;;;;;2.60;99.90;;;;;;5048974;28;19921;-84
2023/03/15 03:15:44;;;;;;;;;;;2.60;99.90;;;;;;5056625;28;19913;-82
2023/03/15 03:18:09;;;;;;;;;;;2.70;99.90;;;;;;5040491;28;19969;-84
2023/03/15 03:20:37;;;;;;;;;;;2.70;99.90;;;;;;5051166;28;20356;-85
2023/03/15 03:23:06;;;;;;;;;;;2.80;99.90;;;;;;5031019;28;19945;-83
2023/03/15 03:25:31;;;;;;;;;;;2.90;99.90;;;;;;5039374;28;19910;-85
2023/03/15 03:27:57;;;;;;;;;;;2.90;99.90;;;;;;5039888;28;19916;-83
2023/03/15 03:30:23;;;;;;;;;;;2.90;99.90;;;;;;5050027;28;20276;-83
2023/03/15 03:32:49;;;;;;;;;;;3.00;99.90;;;;;;5054732;28;19909;-84
2023/03/15 03:35:15;;;;;;;;;;;3.00;99.90;;;;;;5032313;28;20392;-84
2023/03/15 03:37:40;;;;;;;;;;;3.00;99.90;;;;;;5038978;28;19909;-85
2023/03/15 03:40:07;;;;;;;;;;;3.00;99.90;;;;;;5047694;28;19944;-84
2023/03/15 03:42:33;;;;;;;;;;;3.00;99.90;;;;;;5054800;28;19909;-84
2023/03/15 03:44:58;;;;;;;;;;;2.90;99.90;;;;;;5039350;28;19909;-84
2023/03/15 03:47:24;;;;;;;;;;;2.90;99.90;;;;;;5039162;28;19984;-82
2023/03/15 03:49:49;;;;;;;;;;;2.80;99.90;;;;;;5036340;28;19916;-84
2023/03/15 03:52:15;;;;;;;;;;;2.90;99.90;;;;;;5048733;28;20015;-84
2023/03/15 03:54:41;;;;;;;;;;;2.90;99.90;;;;;;5053694;28;19909;-84
2023/03/15 03:57:07;;;;;;;;;;;2.90;99.90;;;;;;5046759;28;19913;-84
2023/03/15 03:59:32;;;;;;;;;;;2.90;99.90;;;;;;5038658;28;19916;-84
2023/03/15 04:01:58;;;;;;;;;;;3.00;99.90;;;;;;5038731;28;19909;-83
2023/03/15 04:04:25;;;;;;;;;;;3.00;99.90;;;;;;5038186;28;19921;-83
2023/03/15 04:06:50;;;;;;;;;;;3.00;99.90;;;;;;5052263;28;19992;-83
2023/03/15 04:09:16;;;;;;;;;;;3.00;99.90;;;;;;5046860;28;19909;-82
2023/03/15 04:11:42;;;;;;;;;;;3.00;99.90;;;;;;5052254;28;19909;-84
2023/03/15 04:14:08;;;;;;;;;;;3.00;99.90;;;;;;5046518;28;19960;-84
2023/03/15 04:16:34;;;;;;;;;;;3.10;99.90;;;;;;5053226;28;19963;-82
2023/03/15 04:18:59;;;;;;;;;;;3.20;99.90;;;;;;5052632;28;19909;-83
2023/03/15 04:21:25;;;;;;;;;;;3.20;99.90;;;;;;5052759;28;19980;-83
2023/03/15 04:23:50;;;;;;;;;;;3.10;99.90;;;;;;5052984;28;19909;-83
2023/03/15 04:26:15;;;;;;;;;;;3.20;99.90;;;;;;5045901;28;20359;-84
2023/03/15 04:28:41;;;;;;;;;;;3.10;99.90;;;;;;5037553;28;19909;-84
2023/03/15 04:31:09;;;;;;;;;;;3.00;99.90;;;;;;5045628;28;19913;-83
2023/03/15 04:33:35;;;;;;;;;;;2.90;99.90;;;;;;5052210;28;19910;-83
2023/03/15 04:36:01;;;;;;;;;;;2.80;99.90;;;;;;5043502;28;19919;-84
2023/03/15 04:38:27;;;;;;;;;;;2.70;99.90;;;;;;5050606;28;20392;-83
2023/03/15 04:40:53;;;;;;;;;;;2.50;99.90;;;;;;5051387;28;19971;-83
2023/03/15 04:43:19;;;;;;;;;;;2.50;99.90;;;;;;5046750;28;19909;-83
2023/03/15 04:45:44;;;;;;;;;;;2.40;99.90;;;;;;5052166;28;19916;-84
2023/03/15 04:48:10;;;;;;;;;;;2.40;99.90;;;;;;5029116;28;20351;-84
2023/03/15 04:50:35;;;;;;;;;;;2.40;99.90;;;;;;5051848;28;19909;-84
2023/03/15 04:53:01;;;;;;;;;;;2.50;99.90;;;;;;5043353;28;20292;-83
2023/03/15 04:55:26;;;;;;;;;;;2.50;99.90;;;;;;5036065;28;19913;-84
2023/03/15 04:57:52;;;;;;;;;;;2.50;99.90;;;;;;5051061;28;19913;-84
2023/03/15 05:00:18;;;;;;;;;;;2.50;99.90;;;;;;5035591;28;19959;-83
2023/03/15 05:02:43;;;;;;;;;;;2.50;99.90;;;;;;5049426;28;19913;-84
2023/03/15 05:05:10;;;;;;;;;;;2.60;99.90;;;;;;5043806;28;19936;-83
2023/03/15 05:07:36;;;;;;;;;;;2.60;99.90;;;;;;5050537;28;19909;-83
2023/03/15 05:10:01;;;;;;;;;;;2.60;99.90;;;;;;5042901;28;19916;-83
2023/03/15 05:12:27;;;;;;;;;;;2.50;99.90;;;;;;5049815;28;20036;-83
2023/03/15 05:14:52;;;;;;;;;;;2.50;99.90;;;;;;5051152;28;19917;-83
2023/03/15 05:17:18;;;;;;;;;;;2.60;99.90;;;;;;5044178;28;20284;-83
2023/03/15 05:19:43;;;;;;;;;;;2.70;99.90;;;;;;5050970;28;19979;-82
2023/03/15 05:22:09;;;;;;;;;;;2.70;99.90;;;;;;5035815;28;20518;-83
2023/03/15 05:24:34;;;;;;;;;;;2.70;99.90;;;;;;5046215;28;19913;-82
2023/03/15 05:27:00;;;;;;;;;;;2.70;99.90;;;;;;5041925;28;19913;-84
2023/03/15 05:29:28;;;;;;;;;;;2.80;99.90;;;;;;5050579;28;19909;-84
2023/03/15 05:31:54;;;;;;;;;;;2.80;99.90;;;;;;5035256;28;20296;-82
2023/03/15 05:34:22;;;;;;;;;;;2.70;99.90;;;;;;5035291;28;19909;-84
2023/03/15 05:36:50;;;;;;;;;;;2.80;99.90;;;;;;5034909;28;19914;-83
2023/03/15 05:39:16;;;;;;;;;;;2.80;99.90;;;;;;5044168;28;19913;-83
2023/03/15 05:41:41;;;;;;;;;;;2.90;99.90;;;;;;5050615;28;19932;-82
2023/03/15 05:44:07;;;;;;;;;;;3.00;99.90;;;;;;5035004;28;19909;-83
2023/03/15 05:46:33;;;;;;;;;;;3.00;99.90;;;;;;5046829;28;19915;-83
2023/03/15 05:48:58;;;;;;;;;;;3.00;99.90;;;;;;5050830;28;20479;-82
2023/03/15 05:51:23;;;;;;;;;;;3.00;99.90;;;;;;5044566;28;20195;-83
2023/03/15 05:53:49;;;;;;;;;;;3.00;99.90;;;;;;5049799;28;19909;-83
2023/03/15 05:56:14;;;;;;;;;;;3.10;99.90;;;;;;5027079;28;19924;-83
2023/03/15 05:58:40;;;;;;;;;;;3.20;99.90;;;;;;5034514;28;19909;-83
2023/03/15 06:01:05;;;;;;;;;;;3.20;99.90;;;;;;5041954;28;19909;-83
2023/03/15 06:03:31;;;;;;;;;;;3.30;99.90;;;;;;5049741;28;20315;-83
2023/03/15 06:05:57;;;;;;;;;;;3.30;99.90;;;;;;5034003;28;20372;-83
2023/03/15 06:08:22;;;;;;;;;;;3.40;99.90;;;;;;5044096;28;19917;-83
2023/03/15 06:10:48;;;;;;;;;;;3.40;99.90;;;;;;5049711;28;19909;-83
2023/03/15 06:13:13;;;;;;;;;;;3.50;99.90;;;;;;5026595;28;19913;-83
2023/03/15 06:15:39;;;;;;;;;;;3.70;99.90;;;;;;5048557;28;19952;-82
2023/03/15 06:18:04;;;;;;;;;;;3.70;99.90;;;;;;5034049;28;19941;-83
2023/03/15 06:20:30;;;;;;;;;;;3.80;99.90;;;;;;5045510;28;19909;-82
2023/03/15 06:22:56;;;;;;;;;;;3.90;99.90;;;;;;5032931;28;19995;-83
2023/03/15 06:25:22;;;;;;;;;;;4.00;99.90;;;;;;5043557;28;19999;-82
2023/03/15 06:27:47;;;;;;;;;;;3.90;99.90;;;;;;5048659;28;19909;-82
2023/03/15 06:30:13;;;;;;;;;;;4.00;99.90;;;;;;5025493;28;19921;-82
2023/03/15 06:32:38;;;;;;;;;;;4.10;99.90;;;;;;5049423;28;19910;-82
2023/03/15 06:35:04;;;;;;;;;;;4.10;99.90;;;;;;5045258;28;19909;-83
2023/03/15 06:37:29;;;;;;;;;;;4.10;99.90;;;;;;5054623;28;19955;-83
2023/03/15 06:39:55;;;;;;;;;;;4.20;99.90;;;;;;5054843;28;19952;-82
2023/03/15 06:42:21;;;;;;;;;;;4.20;99.90;;;;;;5049699;28;19910;-83
2023/03/15 06:44:46;;;;;;;;;;;4.30;99.90;;;;;;5055505;28;19916;-82
2023/03/15 06:47:12;;;;;;;;;;;4.30;99.90;;;;;;5049524;28;19909;-83
2023/03/15 06:49:38;;;;;;;;;;;4.40;99.90;;;;;;5054997;28;20292;-83
2023/03/15 06:52:04;;;;;;;;;;;4.30;99.90;;;;;;5046795;28;19920;-82
2023/03/15 06:54:29;;;;;;;;;;;4.40;99.90;;;;;;5054288;28;19910;-82
2023/03/15 06:56:55;;;;;;;;;;;4.40;99.90;;;;;;5053826;28;19913;-83
2023/03/15 06:59:20;;;;;;;;;;;4.40;99.90;;;;;;5048655;28;20276;-82
2023/03/15 07:01:46;;;;;;;;;;;4.40;99.90;;;;;;5053353;28;20349;-83
2023/03/15 07:04:11;;;;;;;;;;;4.40;99.90;;;;;;5046147;28;19913;-82
2023/03/15 07:06:37;;;;;;;;;;;4.30;99.90;;;;;;5052591;28;19920;-82
2023/03/15 07:09:03;;;;;;;;;;;4.10;99.90;;;;;;5037684;28;19949;-83
2023/03/15 07:11:28;;;;;;;;;;;4.30;99.90;;;;;;5048955;28;19909;-82
2023/03/15 07:13:53;;;;;;;;;;;4.20;99.90;;;;;;5052727;28;19913;-82
2023/03/15 07:16:19;;;;;;;;;;;4.20;99.90;;;;;;5030923;28;19919;-82
2023/03/15 07:18:44;;;;;;;;;;;4.30;99.90;;;;;;5052930;28;19909;-82
2023/03/15 07:21:10;;;;;;;;;;;4.40;99.90;;;;;;5029316;28;20550;-82
2023/03/15 07:23:35;;;;;;;;;;;4.30;99.90;;;;;;5052622;28;20254;-82
2023/03/15 07:26:01;;;;;;;;;;;4.40;99.90;;;;;;5045431;28;20361;-82
2023/03/15 07:28:26;;;;;;;;;;;4.40;99.90;;;;;;5053290;28;20287;-83
2023/03/15 07:30:53;;;;;;;;;;;4.30;99.90;;;;;;5038138;28;19910;-82
2023/03/15 07:33:21;;;;;;;;;;;4.40;99.90;;;;;;5037823;28;20420;-83
2023/03/15 07:35:47;;;;;;;;;;;4.20;99.90;;;;;;5052110;28;19913;-83
2023/03/15 07:38:12;;;;;;;;;;;4.20;99.90;;;;;;5038135;28;19916;-82
2023/03/15 07:40:38;;;;;;;;;;;4.20;99.90;;;;;;5050104;28;19909;-82
2023/03/15 07:43:03;;;;;;;;;;;4.20;99.90;;;;;;5044948;28;19943;-82
2023/03/15 07:45:29;;;;;;;;;;;4.30;99.90;;;;;;5036889;28;20369;-81
2023/03/15 07:47:54;;;;;;;;;;;4.30;99.90;;;;;;5037916;28;19943;-81
2023/03/15 07:50:20;;;;;;;;;;;4.50;99.90;;;;;;5047033;28;19924;-82
2023/03/15 07:52:45;;;;;;;;;;;4.50;99.90;;;;;;5047650;28;20019;-80
2023/03/15 07:55:11;;;;;;;;;;;4.50;99.90;;;;;;5027670;28;20373;-81
2023/03/15 07:57:36;;;;;;;;;;;4.50;99.90;;;;;;5034771;28;19909;-81
2023/03/15 08:00:03;;;;;;;;;;;4.60;99.90;;;;;;5027488;28;19909;-81
2023/03/15 08:02:28;;;;;;;;;;;4.90;99.90;;;;;;5033931;28;19915;-81
2023/03/15 08:04:54;;;;;;;;;;;5.00;99.90;;;;;;5034494;28;20015;-80
2023/03/15 08:07:19;;;;;;;;;;;5.10;99.90;;;;;;5035371;28;19909;-81
2023/03/15 08:09:45;;;;;;;;;;;5.30;99.90;;;;;;5032476;28;19916;-81
2023/03/15 08:12:10;;;;;;;;;;;5.40;99.90;;;;;;5043324;28;19921;-80
2023/03/15 08:14:36;;;;;;;;;;;5.60;99.90;;;;;;5034172;28;19952;-81
2023/03/15 08:17:02;;;;;;;;;;;5.60;99.90;;;;;;5042634;28;19913;-81
2023/03/15 08:19:27;;;;;;;;;;;5.50;99.90;;;;;;5034174;28;19909;-82
2023/03/15 08:21:52;;;;;;;;;;;5.70;99.90;;;;;;5034522;28;20300;-82
2023/03/15 08:24:20;;;;;;;;;;;5.90;99.90;;;;;;5035772;28;19916;-81
2023/03/15 08:26:46;;;;;;;;;;;6.10;99.90;;;;;;5035065;28;19995;-82
2023/03/15 08:29:11;;;;;;;;;;;6.10;99.90;;;;;;5034724;28;20044;-82
2023/03/15 08:31:37;;;;;;;;;;;6.10;99.90;;;;;;5046759;28;19916;-82
2023/03/15 08:34:02;;;;;;;;;;;6.20;99.90;;;;;;5035123;28;19909;-82
2023/03/15 08:36:28;;;;;;;;;;;6.10;99.90;;;;;;5030372;28;19923;-82
2023/03/15 08:38:54;;;;;;;;;;;6.10;99.90;;;;;;5035775;28;20000;-82
2023/03/15 08:41:19;;;;;;;;;;;6.20;99.90;;;;;;5034084;28;20365;-82
2023/03/15 08:43:44;;;;;;;;;;;6.20;99.90;;;;;;5034241;28;19916;-82
2023/03/15 08:46:10;;;;;;;;;;;6.30;99.90;;;;;;5034283;28;19952;-82
2023/03/15 08:48:35;;;;;;;;;;;6.40;99.90;;;;;;5046554;28;20369;-82
2023/03/15 08:51:02;;;;;;;;;;;6.40;99.90;;;;;;5024281;28;19913;-82
2023/03/15 08:53:28;;;;;;;;;;;6.50;99.90;;;;;;5026720;28;19909;-82
2023/03/15 08:55:54;;;;;;;;;;;6.50;99.90;;;;;;5013995;28;19953;-82
2023/03/15 08:58:20;;;;;;;;;;;6.70;99.90;;;;;;5013785;28;20266;-82
2023/03/15 09:00:47;;;;;;;;;;;6.60;99.90;;;;;;5011020;28;19917;-82
2023/03/15 09:03:14;;;;;;;;;;;6.70;99.90;;;;;;5005880;28;20350;-82
2023/03/15 09:05:40;;;;;;;;;;;6.90;99.90;;;;;;5012456;28;19918;-82
2023/03/15 09:08:05;;;;;;;;;;;6.80;99.90;;;;;;5005535;28;20369;-81
2023/03/15 09:10:31;;;;;;;;;;;6.70;99.90;;;;;;5015007;28;19910;-81
2023/03/15 09:12:56;;;;;;;;;;;6.50;99.90;;;;;;5012648;28;19947;-81
2023/03/15 09:15:22;;;;;;;;;;;6.60;99.90;;;;;;5008314;28;19968;-81
2023/03/15 09:17:48;;;;;;;;;;;6.80;99.90;;;;;;5014669;28;19917;-81
2023/03/15 09:20:15;;;;;;;;;;;7.00;99.90;;;;;;5013850;28;19920;-81
2023/03/15 09:22:48;;;;;;;;;;;7.30;99.90;;;;;;5014107;28;20373;-81
2023/03/15 09:25:14;;;;;;;;;;;7.70;99.90;;;;;;5025922;28;19913;-82
2023/03/15 09:27:39;;;;;;;;;;;7.90;99.90;;;;;;5048832;28;19910;-82
2023/03/15 09:30:05;;;;;;;;;;;8.00;99.90;;;;;;5024932;28;20372;-82
2023/03/15 09:32:34;;;;;;;;;;;7.80;99.90;;;;;;5032065;28;19909;-82
2023/03/15 09:35:01;;;;;;;;;;;7.60;99.90;;;;;;5032061;28;20426;-81
2023/03/15 09:37:27;;;;;;;;;;;7.40;99.90;;;;;;5033467;28;19913;-82
2023/03/15 09:39:53;;;;;;;;;;;7.30;99.90;;;;;;5033746;28;19916;-82
2023/03/15 09:42:24;;;;;;;;;;;7.10;99.90;;;;;;5043250;28;19913;-82
2023/03/15 09:44:54;;;;;;;;;;;7.00;99.90;;;;;;5013561;28;19960;-84
2023/03/15 09:47:40;;;;;;;;;;;7.10;99.90;;;;;;5022064;28;19909;-84
2023/03/15 09:50:20;;;;;;;;;;;7.20;99.90;;;;;;5015725;28;19909;-84
2023/03/15 09:52:52;;;;;;;;;;;7.30;99.90;;;;;;5031928;28;19910;-84
2023/03/15 09:55:27;;;;;;;;;;;7.40;99.90;;;;;;5015501;28;19972;-83
2023/03/15 09:58:01;;;;;;;;;;;7.40;99.90;;;;;;5016453;28;20420;-85
2023/03/15 10:00:34;;;;;;;;;;;7.70;99.90;;;;;;5016532;28;19910;-85
2023/03/15 10:03:02;;;;;;;;;;;9.00;99.90;;;;;;5015616;28;19909;-85
2023/03/15 10:05:33;;;;;;;;;;;11.50;99.90;;;;;;4999512;28;20282;-86
2023/03/15 10:07:59;;;;;;;;;;;14.30;99.90;;;;;;4998313;28;19909;-86
2023/03/15 10:10:32;;;;;;;;;;;16.80;99.90;;;;;;4997073;28;19910;-86
2023/03/15 10:13:05;;;;;;;;;;;18.80;92.10;;;;;;4997290;28;19910;-85
2023/03/15 10:15:35;;;;;;;;;;;19.20;77.70;;;;;;4997270;28;19914;-81
2023/03/15 10:18:17;;;;;;;;;;;18.20;69.70;;;;;;5014029;28;20000;-82
2023/03/15 10:20:48;;;;;;;;;;;18.50;76.60;;;;;;5013112;28;20400;-83
2023/03/15 10:23:17;;;;;;;;;;;19.70;74.10;;;;;;5012761;28;19914;-82
2023/03/15 10:25:43;;;;;;;;;;;20.00;68.80;;;;;;5011240;28;19909;-82
2023/03/15 10:28:11;;;;;;;;;;;21.00;67.50;;;;;;5011569;28;19909;-82
2023/03/15 10:30:38;;;;;;;;;;;20.40;59.70;;;;;;5011597;28;20027;-82
2023/03/15 10:33:15;;;;;;;;;;;18.40;60.30;;;;;;5019556;28;19925;-81
2023/03/15 10:35:43;;;;;;;;;;;16.20;66.70;;;;;;5028958;28;20058;-80
2023/03/15 10:38:15;;;;;;;;;;;14.70;76.20;;;;;;5032660;28;19909;-82
2023/03/15 10:40:42;;;;;;;;;;;14.00;89.90;;;;;;5032124;28;19909;-83
2023/03/15 10:43:12;;;;;;;;;;;14.70;90.40;;;;;;5023740;28;20058;-82
2023/03/15 10:45:38;;;;;;;;;;;16.80;92.90;;;;;;5032922;28;19909;-83
2023/03/15 10:48:03;;;;;;;;;;;19.60;77.20;;;;;;5032684;28;19962;-84
2023/03/15 10:50:30;;;;;;;;;;;21.20;68.50;;;;;;5043928;28;19910;-82
2023/03/15 10:52:56;;;;;;;;;;;23.20;63.20;;;;;;5032017;28;20011;-82
2023/03/15 10:55:29;;;;;;;;;;;25.10;53.90;;;;;;5032252;28;19932;-82
2023/03/15 10:57:56;;;;;;;;;;;25.70;53.40;;;;;;5032397;28;20015;-81
2023/03/15 11:00:22;;;;;;;;;;;26.90;48.40;;;;;;5025680;28;20369;-81
2023/03/15 11:02:59;;;;;;;;;;;27.60;45.40;;;;;;5030415;28;19936;-80
2023/03/15 11:05:28;;;;;;;;;;;28.30;43.30;;;;;;5031529;28;19920;-81
2023/03/15 11:07:55;;;;;;;;;;;28.10;42.30;;;;;;5032049;28;19913;-80
2023/03/15 11:10:22;;;;;;;;;;;27.10;41.70;;;;;;5041922;28;19943;-81
2023/03/15 11:12:48;;;;;;;;;;;26.60;43.10;;;;;;5030184;28;19909;-80
2023/03/15 11:15:14;;;;;;;;;;;26.00;40.80;;;;;;5024239;28;19909;-79
2023/03/15 11:17:44;;;;;;;;;;;26.60;39.60;;;;;;5031531;28;20386;-80
2023/03/15 11:20:25;;;;;;;;;;;27.10;38.60;;;;;;5024094;28;19913;-82
2023/03/15 11:22:51;;;;;;;;;;;26.80;37.20;;;;;;5034947;28;20361;-83
2023/03/15 11:25:17;;;;;;;;;;;25.30;39.20;;;;;;5028250;28;19916;-81
2023/03/15 11:27:42;;;;;;;;;;;24.60;40.30;;;;;;5034089;28;19909;-82
2023/03/15 11:30:12;;;;;;;;;;;24.40;39.40;;;;;;5015777;28;19909;-82
2023/03/15 11:32:38;;;;;;;;;;;23.90;40.10;;;;;;5030846;28;19920;-82
2023/03/15 11:35:13;;;;;;;;;;;22.90;41.20;;;;;;5033120;28;20000;-82
2023/03/15 11:37:38;;;;;;;;;;;22.70;42.10;;;;;;5031376;28;19974;-82
2023/03/15 11:40:20;;;;;;;;;;;22.10;42.10;;;;;;5042966;28;19910;-82
2023/03/15 11:42:52;;;;;;;;;;;22.30;42.50;;;;;;5033363;28;19943;-82
2023/03/15 11:45:22;;;;;;;;;;;23.40;42.50;;;;;;5044816;28;19909;-82
2023/03/15 11:47:51;;;;;;;;;;;23.80;42.10;;;;;;5033772;28;19956;-82
2023/03/15 11:50:17;;;;;;;;;;;24.60;42.00;;;;;;5027649;28;20442;-82
2023/03/15 11:52:46;;;;;;;;;;;24.40;39.20;;;;;;5039043;28;20114;-83
2023/03/15 11:55:25;;;;;;;;;;;22.30;39.50;;;;;;5034980;28;19933;-84
2023/03/15 11:57:52;;;;;;;;;;;20.40;40.90;;;;;;5043376;28;19916;-83
2023/03/15 12:00:19;;;;;;;;;;;18.90;43.00;;;;;;5035520;28;19909;-83
2023/03/15 12:02:49;;;;;;;;;;;18.70;43.00;;;;;;5042790;28;19909;-82
2023/03/15 12:05:34;;;;;;;;;;;19.00;46.00;;;;;;5033449;28;19917;-83
2023/03/15 12:08:15;;;;;;;;;;;18.70;43.50;;;;;;5039620;28;19909;-83
2023/03/15 12:10:45;;;;;;;;;;;18.40;42.90;;;;;;5041556;28;19909;-83
2023/03/15 12:13:21;;;;;;;;;;;18.50;44.90;;;;;;5032971;28;19909;-84
2023/03/15 12:15:47;;;;;;;;;;;19.80;42.90;;;;;;5040358;28;19913;-83
2023/03/15 12:18:15;;;;;;;;;;;20.70;42.30;;;;;;5039520;28;19913;-83
2023/03/15 12:20:41;;;;;;;;;;;21.00;41.90;;;;;;5036118;28;19913;-83
2023/03/15 12:23:16;;;;;;;;;;;20.80;39.70;;;;;;5030655;28;20304;-82
2023/03/15 12:25:49;;;;;;;;;;;20.60;43.60;;;;;;5017911;28;19913;-82
2023/03/15 12:28:19;;;;;;;;;;;20.60;41.20;;;;;;5001048;28;20373;-83
2023/03/15 12:30:51;;;;;;;;;;;20.20;40.40;;;;;;5018780;28;19910;-83
2023/03/15 12:33:20;;;;;;;;;;;21.00;41.10;;;;;;5018250;28;19956;-83
2023/03/15 12:35:46;;;;;;;;;;;22.70;39.80;;;;;;5017517;28;19913;-81
2023/03/15 12:38:18;;;;;;;;;;;24.40;39.80;;;;;;5018690;28;19910;-82
2023/03/15 12:40:47;;;;;;;;;;;26.60;40.00;;;;;;5018977;28;19981;-83
2023/03/15 12:43:13;;;;;;;;;;;27.90;35.50;;;;;;5015934;28;19913;-84
2023/03/15 12:45:40;;;;;;;;;;;28.70;34.90;;;;;;5018216;28;19916;-84
2023/03/15 12:48:07;;;;;;;;;;;28.20;33.40;;;;;;5018171;28;20384;-86
2023/03/15 12:50:35;;;;;;;;;;;28.00;32.70;;;;;;5025762;28;19913;-84
2023/03/15 12:53:03;;;;;;;;;;;26.60;32.00;;;;;;5024559;28;20336;-84
2023/03/15 12:55:31;;;;;;;;;;;25.60;33.90;;;;;;5024065;28;19910;-84
2023/03/15 12:57:58;;;;;;;;;;;24.60;32.70;;;;;;5024258;28;19994;-83
2023/03/15 13:00:26;;;;;;;;;;;23.70;34.10;;;;;;5019501;28;20335;-84
2023/03/15 13:03:03;;;;;;;;;;;22.60;34.00;;;;;;5018140;28;19910;-84
2023/03/15 13:05:36;;;;;;;;;;;21.30;35.40;;;;;;5017253;28;19924;-81
2023/03/15 13:08:22;;;;;;;;;;;20.50;36.10;;;;;;5018699;28;19909;-83
2023/03/15 13:10:48;;;;;;;;;;;21.30;38.30;;;;;;5023499;28;19910;-85
2023/03/15 13:13:16;;;;;;;;;;;21.40;36.60;;;;;;5018669;28;19917;-84
2023/03/15 13:15:54;;;;;;;;;;;21.40;36.10;;;;;;5018336;28;19920;-83
2023/03/15 13:18:21;;;;;;;;;;;21.70;36.50;;;;;;5002225;28;19959;-83
2023/03/15 13:20:47;;;;;;;;;;;22.40;36.00;;;;;;5021323;28;19917;-83
2023/03/15 13:23:28;;;;;;;;;;;22.40;34.70;;;;;;5018080;28;19913;-84
2023/03/15 13:26:03;;;;;;;;;;;21.80;36.10;;;;;;5019150;28;19913;-83
2023/03/15 13:28:29;;;;;;;;;;;22.20;35.70;;;;;;5021619;28;19960;-84
2023/03/15 13:30:55;;;;;;;;;;;22.90;36.30;;;;;;5021928;28;19951;-83
2023/03/15 13:33:30;;;;;;;;;;;22.40;33.80;;;;;;5003219;28;19909;-84
2023/03/15 13:36:00;;;;;;;;;;;22.00;34.20;;;;;;5016526;28;19917;-83
2023/03/15 13:38:27;;;;;;;;;;;23.10;34.60;;;;;;5016477;28;19910;-83
2023/03/15 13:40:54;;;;;;;;;;;24.30;35.50;;;;;;5017429;28;19913;-82
2023/03/15 13:43:23;;;;;;;;;;;24.70;33.90;;;;;;5017947;28;19910;-84
2023/03/15 13:45:48;;;;;;;;;;;24.90;33.30;;;;;;5019247;28;19909;-84
2023/03/15 13:48:14;;;;;;;;;;;24.20;32.70;;;;;;5017484;28;19971;-83
2023/03/15 13:50:39;;;;;;;;;;;24.20;33.60;;;;;;4999229;28;19910;-83
2023/03/15 13:53:05;;;;;;;;;;;24.60;32.10;;;;;;5014875;28;20384;-83
2023/03/15 13:55:32;;;;;;;;;;;24.30;31.50;;;;;;5017780;28;20312;-84
2023/03/15 13:57:59;;;;;;;;;;;23.10;31.90;;;;;;5018087;28;19910;-83
2023/03/15 14:00:25;;;;;;;;;;;21.80;33.50;;;;;;5015628;28;20540;-82
2023/03/15 14:02:57;;;;;;;;;;;20.30;34.00;;;;;;5016388;28;19916;-83
2023/03/15 14:05:27;;;;;;;;;;;19.40;35.50;;;;;;5016881;28;19921;-82
2023/03/15 14:08:01;;;;;;;;;;;18.40;35.20;;;;;;5015325;28;20333;-81
2023/03/15 14:10:28;;;;;;;;;;;17.50;36.50;;;;;;5015148;28;20000;-83
2023/03/15 14:12:55;;;;;;;;;;;17.00;37.80;;;;;;5020395;28;19947;-82
2023/03/15 14:15:36;;;;;;;;;;;16.70;38.70;;;;;;5028504;28;19916;-82
2023/03/15 14:18:02;;;;;;;;;;;16.70;38.80;;;;;;5035645;28;19910;-83
2023/03/15 14:20:29;;;;;;;;;;;17.10;38.50;;;;;;5029628;28;20332;-83
2023/03/15 14:22:59;;;;;;;;;;;17.60;38.80;;;;;;5035164;28;19909;-82
2023/03/15 14:25:25;;;;;;;;;;;18.40;37.10;;;;;;5029643;28;19913;-82
2023/03/15 14:27:51;;;;;;;;;;;19.10;36.70;;;;;;5034360;28;20419;-84
2023/03/15 14:30:21;;;;;;;;;;;19.80;36.20;;;;;;5029245;28;19960;-84
2023/03/15 14:32:51;;;;;;;;;;;20.20;34.60;;;;;;5035874;28;19953;-84
2023/03/15 14:35:25;;;;;;;;;;;20.60;34.10;;;;;;5028938;28;20314;-82
2023/03/15 14:38:05;;;;;;;;;;;20.90;34.20;;;;;;5033862;28;19988;-82
2023/03/15 14:40:33;;;;;;;;;;;21.00;33.80;;;;;;5035364;28;19909;-83
2023/03/15 14:42:59;;;;;;;;;;;20.30;34.50;;;;;;5034756;28;19917;-83
2023/03/15 14:45:26;;;;;;;;;;;20.20;35.90;;;;;;5028624;28;20323;-82
2023/03/15 14:47:53;;;;;;;;;;;20.60;35.50;;;;;;5034637;28;19956;-82
2023/03/15 14:50:19;;;;;;;;;;;20.40;35.30;;;;;;5027917;28;20032;-83
2023/03/15 14:52:46;;;;;;;;;;;20.20;36.50;;;;;;5034159;28;20424;-82
2023/03/15 14:55:16;;;;;;;;;;;20.00;35.70;;;;;;5035760;28;19910;-81